sensor_id;sensor_type;location;lat;lon;timestamp;P1;durP1;ratioP1;P2;durP2;ratioP2
41480;SDS011;27217;51.220;5.308;2022-12-01T00:01:30;51.67;;;23.95;;
41480;SDS011;27217;51.220;5.308;2022-12-01T00:03:56;56.38;;;24.73;;
41480;SDS011;27217;51.220;5.308;2022-12-01T00:06:22;58.47;;;25.73;;
41480;SDS011;27217;51.220;5.308;2022-12-01T00:08:48;52.45;;;24.17;;
41480;SDS011;27217;51.220;5.308;2022-12-01T00:11:34;63.78;;;24.92;;
41480;SDS011;27217;51.220;5.308;2022-12-01T00:14:01;55.50;;;25.00;;
41480;SDS011;27217;51.220;5.308;2022-12-01T00:16:27;53.83;;;24.52;;
41480;SDS011;27217;51.220;5.308;2022-12-01T00:18:54;52.13;;;22.73;;
41480;SDS011;27217;51.220;5.308;2022-12-01T00:21:21;60.40;;;25.23;;
41480;SDS011;27217;51.220;5.308;2022-12-01T00:23:49;55.00;;;25.13;;
41480;SDS011;27217;51.220;5.308;2022-12-01T00:26:17;62.13;;;25.70;;
41480;SDS011;27217;51.220;5.308;2022-12-01T00:28:48;55.38;;;24.92;;
41480;SDS011;27217;51.220;5.308;2022-12-01T00:31:18;57.08;;;25.13;;
41480;SDS011;27217;51.220;5.308;2022-12-01T00:33:44;57.92;;;25.50;;
41480;SDS011;27217;51.220;5.308;2022-12-01T00:36:10;63.80;;;27.50;;
41480;SDS011;27217;51.220;5.308;2022-12-01T00:38:37;60.30;;;26.20;;
41480;SDS011;27217;51.220;5.308;2022-12-01T00:41:03;67.93;;;26.10;;
41480;SDS011;27217;51.220;5.308;2022-12-01T00:43:29;61.53;;;25.85;;
41480;SDS011;27217;51.220;5.308;2022-12-01T00:45:55;62.38;;;26.50;;
41480;SDS011;27217;51.220;5.308;2022-12-01T00:48:22;57.80;;;25.13;;
41480;SDS011;27217;51.220;5.308;2022-12-01T00:50:49;65.93;;;26.80;;
41480;SDS011;27217;51.220;5.308;2022-12-01T00:53:16;70.03;;;28.17;;
41480;SDS011;27217;51.220;5.308;2022-12-01T00:55:42;65.40;;;25.05;;
41480;SDS011;27217;51.220;5.308;2022-12-01T00:58:08;69.82;;;27.10;;
41480;SDS011;27217;51.220;5.308;2022-12-01T01:00:34;65.32;;;26.05;;
41480;SDS011;27217;51.220;5.308;2022-12-01T01:03:03;74.07;;;27.75;;
41480;SDS011;27217;51.220;5.308;2022-12-01T01:05:30;72.18;;;28.02;;
41480;SDS011;27217;51.220;5.308;2022-12-01T01:08:01;69.40;;;27.05;;
41480;SDS011;27217;51.220;5.308;2022-12-01T01:10:30;67.03;;;26.98;;
41480;SDS011;27217;51.220;5.308;2022-12-01T01:12:56;77.38;;;29.20;;
41480;SDS011;27217;51.220;5.308;2022-12-01T01:15:22;81.65;;;28.77;;
41480;SDS011;27217;51.220;5.308;2022-12-01T01:17:48;71.75;;;27.75;;
41480;SDS011;27217;51.220;5.308;2022-12-01T01:20:14;73.65;;;29.73;;
41480;SDS011;27217;51.220;5.308;2022-12-01T01:22:40;70.97;;;27.88;;
41480;SDS011;27217;51.220;5.308;2022-12-01T01:25:05;69.63;;;26.77;;
41480;SDS011;27217;51.220;5.308;2022-12-01T01:27:32;66.60;;;26.65;;
41480;SDS011;27217;51.220;5.308;2022-12-01T01:29:58;75.68;;;26.98;;
41480;SDS011;27217;51.220;5.308;2022-12-01T01:32:24;69.55;;;28.17;;
41480;SDS011;27217;51.220;5.308;2022-12-01T01:34:50;69.35;;;27.05;;
41480;SDS011;27217;51.220;5.308;2022-12-01T01:37:19;64.55;;;25.70;;
41480;SDS011;27217;51.220;5.308;2022-12-01T01:39:45;67.13;;;25.80;;
41480;SDS011;27217;51.220;5.308;2022-12-01T01:42:11;63.80;;;25.10;;
41480;SDS011;27217;51.220;5.308;2022-12-01T01:49:53;69.47;;;27.27;;
41480;SDS011;27217;51.220;5.308;2022-12-01T01:52:29;69.50;;;27.27;;
41480;SDS011;27217;51.220;5.308;2022-12-01T01:54:56;68.78;;;26.75;;
41480;SDS011;27217;51.220;5.308;2022-12-01T01:57:24;69.15;;;26.73;;
41480;SDS011;27217;51.220;5.308;2022-12-01T01:59:56;69.53;;;24.98;;
41480;SDS011;27217;51.220;5.308;2022-12-01T02:02:25;66.85;;;24.10;;
41480;SDS011;27217;51.220;5.308;2022-12-01T02:04:52;67.32;;;25.35;;
41480;SDS011;27217;51.220;5.308;2022-12-01T02:07:23;70.32;;;25.70;;
41480;SDS011;27217;51.220;5.308;2022-12-01T02:09:49;65.55;;;25.23;;
41480;SDS011;27217;51.220;5.308;2022-12-01T02:12:29;64.38;;;24.83;;
41480;SDS011;27217;51.220;5.308;2022-12-01T02:23:21;67.53;;;25.40;;
41480;SDS011;27217;51.220;5.308;2022-12-01T02:31:47;75.70;;;27.30;;
41480;SDS011;27217;51.220;5.308;2022-12-01T02:37:17;67.60;;;25.67;;
41480;SDS011;27217;51.220;5.308;2022-12-01T02:40:11;78.05;;;26.00;;
41480;SDS011;27217;51.220;5.308;2022-12-01T02:42:47;80.93;;;26.98;;
41480;SDS011;27217;51.220;5.308;2022-12-01T02:48:27;81.57;;;27.77;;
41480;SDS011;27217;51.220;5.308;2022-12-01T02:51:08;81.20;;;25.83;;
41480;SDS011;27217;51.220;5.308;2022-12-01T02:53:37;87.70;;;27.73;;
41480;SDS011;27217;51.220;5.308;2022-12-01T02:56:05;84.85;;;27.17;;
41480;SDS011;27217;51.220;5.308;2022-12-01T02:58:33;80.10;;;27.20;;
41480;SDS011;27217;51.220;5.308;2022-12-01T03:03:58;89.72;;;26.40;;
41480;SDS011;27217;51.220;5.308;2022-12-01T03:17:46;97.40;;;29.13;;
41480;SDS011;27217;51.220;5.308;2022-12-01T03:20:40;81.07;;;26.25;;
41480;SDS011;27217;51.220;5.308;2022-12-01T03:23:20;92.55;;;29.92;;
41480;SDS011;27217;51.220;5.308;2022-12-01T03:25:51;94.63;;;28.42;;
41480;SDS011;27217;51.220;5.308;2022-12-01T03:28:21;93.20;;;29.38;;
41480;SDS011;27217;51.220;5.308;2022-12-01T03:30:53;107.80;;;30.35;;
41480;SDS011;27217;51.220;5.308;2022-12-01T03:33:25;101.47;;;31.77;;
41480;SDS011;27217;51.220;5.308;2022-12-01T03:36:15;96.70;;;29.50;;
41480;SDS011;27217;51.220;5.308;2022-12-01T03:38:48;99.30;;;29.63;;
41480;SDS011;27217;51.220;5.308;2022-12-01T03:41:21;108.85;;;31.15;;
41480;SDS011;27217;51.220;5.308;2022-12-01T03:43:53;95.35;;;28.95;;
41480;SDS011;27217;51.220;5.308;2022-12-01T03:46:26;107.07;;;30.70;;
41480;SDS011;27217;51.220;5.308;2022-12-01T03:49:00;103.47;;;30.27;;
41480;SDS011;27217;51.220;5.308;2022-12-01T03:54:55;108.50;;;31.27;;
41480;SDS011;27217;51.220;5.308;2022-12-01T03:57:26;123.68;;;31.77;;
41480;SDS011;27217;51.220;5.308;2022-12-01T03:59:58;111.90;;;30.60;;
41480;SDS011;27217;51.220;5.308;2022-12-01T04:02:25;110.88;;;32.10;;
41480;SDS011;27217;51.220;5.308;2022-12-01T04:04:52;106.20;;;31.15;;
41480;SDS011;27217;51.220;5.308;2022-12-01T04:07:19;106.80;;;31.77;;
41480;SDS011;27217;51.220;5.308;2022-12-01T04:09:46;116.65;;;29.95;;
41480;SDS011;27217;51.220;5.308;2022-12-01T04:12:12;110.88;;;31.10;;
41480;SDS011;27217;51.220;5.308;2022-12-01T04:14:55;100.53;;;29.10;;
41480;SDS011;27217;51.220;5.308;2022-12-01T04:17:22;105.05;;;31.23;;
41480;SDS011;27217;51.220;5.308;2022-12-01T04:19:49;102.78;;;30.20;;
41480;SDS011;27217;51.220;5.308;2022-12-01T04:22:14;108.20;;;31.13;;
41480;SDS011;27217;51.220;5.308;2022-12-01T04:24:41;94.30;;;27.42;;
41480;SDS011;27217;51.220;5.308;2022-12-01T04:27:07;96.00;;;28.08;;
41480;SDS011;27217;51.220;5.308;2022-12-01T04:29:33;98.43;;;28.58;;
41480;SDS011;27217;51.220;5.308;2022-12-01T04:31:59;100.45;;;29.15;;
41480;SDS011;27217;51.220;5.308;2022-12-01T04:34:25;97.90;;;28.23;;
41480;SDS011;27217;51.220;5.308;2022-12-01T04:36:50;96.60;;;29.92;;
41480;SDS011;27217;51.220;5.308;2022-12-01T04:39:16;97.13;;;29.98;;
41480;SDS011;27217;51.220;5.308;2022-12-01T04:41:42;86.13;;;28.40;;
41480;SDS011;27217;51.220;5.308;2022-12-01T04:44:09;107.80;;;30.65;;
41480;SDS011;27217;51.220;5.308;2022-12-01T04:46:35;90.78;;;28.80;;
41480;SDS011;27217;51.220;5.308;2022-12-01T04:49:02;103.75;;;31.33;;
41480;SDS011;27217;51.220;5.308;2022-12-01T04:51:29;87.28;;;27.58;;
41480;SDS011;27217;51.220;5.308;2022-12-01T04:53:55;95.80;;;31.15;;
41480;SDS011;27217;51.220;5.308;2022-12-01T04:56:21;93.60;;;29.17;;
41480;SDS011;27217;51.220;5.308;2022-12-01T04:58:47;94.13;;;28.88;;
41480;SDS011;27217;51.220;5.308;2022-12-01T05:01:14;96.88;;;28.27;;
41480;SDS011;27217;51.220;5.308;2022-12-01T05:03:43;98.80;;;31.30;;
41480;SDS011;27217;51.220;5.308;2022-12-01T05:06:14;92.50;;;28.98;;
41480;SDS011;27217;51.220;5.308;2022-12-01T05:08:42;104.45;;;31.67;;
41480;SDS011;27217;51.220;5.308;2022-12-01T05:11:08;91.15;;;29.85;;
41480;SDS011;27217;51.220;5.308;2022-12-01T05:13:36;96.25;;;30.27;;
41480;SDS011;27217;51.220;5.308;2022-12-01T05:16:07;96.93;;;28.63;;
41480;SDS011;27217;51.220;5.308;2022-12-01T05:18:37;96.18;;;30.33;;
41480;SDS011;27217;51.220;5.308;2022-12-01T05:21:03;94.28;;;28.23;;
41480;SDS011;27217;51.220;5.308;2022-12-01T05:23:31;88.55;;;27.58;;
41480;SDS011;27217;51.220;5.308;2022-12-01T05:25:59;88.15;;;29.08;;
41480;SDS011;27217;51.220;5.308;2022-12-01T05:28:26;97.63;;;30.98;;
41480;SDS011;27217;51.220;5.308;2022-12-01T05:30:52;98.82;;;30.33;;
41480;SDS011;27217;51.220;5.308;2022-12-01T05:33:20;86.80;;;27.75;;
41480;SDS011;27217;51.220;5.308;2022-12-01T05:35:47;89.95;;;28.17;;
41480;SDS011;27217;51.220;5.308;2022-12-01T05:38:14;91.13;;;28.70;;
41480;SDS011;27217;51.220;5.308;2022-12-01T05:40:40;91.78;;;29.08;;
41480;SDS011;27217;51.220;5.308;2022-12-01T05:43:07;94.85;;;28.33;;
41480;SDS011;27217;51.220;5.308;2022-12-01T05:45:33;99.10;;;28.98;;
41480;SDS011;27217;51.220;5.308;2022-12-01T05:48:00;88.00;;;28.98;;
41480;SDS011;27217;51.220;5.308;2022-12-01T05:50:27;83.20;;;28.02;;
41480;SDS011;27217;51.220;5.308;2022-12-01T05:52:54;98.18;;;29.80;;
41480;SDS011;27217;51.220;5.308;2022-12-01T05:55:20;95.25;;;29.00;;
41480;SDS011;27217;51.220;5.308;2022-12-01T05:57:46;82.70;;;27.45;;
41480;SDS011;27217;51.220;5.308;2022-12-01T06:00:12;77.75;;;25.88;;
41480;SDS011;27217;51.220;5.308;2022-12-01T06:02:39;82.80;;;28.38;;
41480;SDS011;27217;51.220;5.308;2022-12-01T06:05:05;86.65;;;28.13;;
41480;SDS011;27217;51.220;5.308;2022-12-01T06:07:32;82.30;;;26.90;;
41480;SDS011;27217;51.220;5.308;2022-12-01T06:09:59;74.25;;;25.25;;
41480;SDS011;27217;51.220;5.308;2022-12-01T06:12:26;77.43;;;26.77;;
41480;SDS011;27217;51.220;5.308;2022-12-01T06:14:52;80.28;;;27.45;;
41480;SDS011;27217;51.220;5.308;2022-12-01T06:17:18;72.18;;;24.60;;
41480;SDS011;27217;51.220;5.308;2022-12-01T06:19:44;76.05;;;27.13;;
41480;SDS011;27217;51.220;5.308;2022-12-01T06:22:11;78.55;;;26.17;;
41480;SDS011;27217;51.220;5.308;2022-12-01T06:24:36;81.00;;;27.50;;
41480;SDS011;27217;51.220;5.308;2022-12-01T06:27:04;70.57;;;26.10;;
41480;SDS011;27217;51.220;5.308;2022-12-01T06:29:30;63.50;;;24.10;;
41480;SDS011;27217;51.220;5.308;2022-12-01T06:31:55;76.50;;;25.92;;
41480;SDS011;27217;51.220;5.308;2022-12-01T06:34:22;64.45;;;24.20;;
41480;SDS011;27217;51.220;5.308;2022-12-01T06:36:47;61.50;;;23.63;;
41480;SDS011;27217;51.220;5.308;2022-12-01T06:39:14;69.53;;;25.00;;
41480;SDS011;27217;51.220;5.308;2022-12-01T06:41:40;64.25;;;24.02;;
41480;SDS011;27217;51.220;5.308;2022-12-01T06:44:07;64.07;;;24.13;;
41480;SDS011;27217;51.220;5.308;2022-12-01T06:46:33;70.43;;;24.52;;
41480;SDS011;27217;51.220;5.308;2022-12-01T06:48:58;59.78;;;23.58;;
41480;SDS011;27217;51.220;5.308;2022-12-01T06:51:24;62.40;;;23.65;;
41480;SDS011;27217;51.220;5.308;2022-12-01T06:53:54;61.53;;;22.90;;
41480;SDS011;27217;51.220;5.308;2022-12-01T06:56:20;64.47;;;23.95;;
41480;SDS011;27217;51.220;5.308;2022-12-01T06:58:50;65.03;;;23.75;;
41480;SDS011;27217;51.220;5.308;2022-12-01T07:01:16;51.38;;;22.20;;
41480;SDS011;27217;51.220;5.308;2022-12-01T07:03:46;57.38;;;21.75;;
41480;SDS011;27217;51.220;5.308;2022-12-01T07:06:13;63.65;;;23.65;;
41480;SDS011;27217;51.220;5.308;2022-12-01T07:08:42;52.05;;;21.77;;
41480;SDS011;27217;51.220;5.308;2022-12-01T07:11:12;63.55;;;22.92;;
41480;SDS011;27217;51.220;5.308;2022-12-01T07:13:40;56.65;;;22.23;;
41480;SDS011;27217;51.220;5.308;2022-12-01T07:16:09;60.78;;;22.52;;
41480;SDS011;27217;51.220;5.308;2022-12-01T07:18:35;53.47;;;21.38;;
41480;SDS011;27217;51.220;5.308;2022-12-01T07:21:01;51.08;;;21.23;;
41480;SDS011;27217;51.220;5.308;2022-12-01T07:23:29;57.85;;;21.08;;
41480;SDS011;27217;51.220;5.308;2022-12-01T07:28:31;49.42;;;20.25;;
41480;SDS011;27217;51.220;5.308;2022-12-01T07:31:07;50.80;;;19.10;;
41480;SDS011;27217;51.220;5.308;2022-12-01T07:33:37;52.78;;;20.05;;
41480;SDS011;27217;51.220;5.308;2022-12-01T07:36:03;55.30;;;21.45;;
41480;SDS011;27217;51.220;5.308;2022-12-01T07:38:30;49.75;;;19.05;;
41480;SDS011;27217;51.220;5.308;2022-12-01T07:41:01;56.83;;;20.38;;
41480;SDS011;27217;51.220;5.308;2022-12-01T07:43:28;58.20;;;20.50;;
41480;SDS011;27217;51.220;5.308;2022-12-01T07:45:55;64.00;;;20.48;;
41480;SDS011;27217;51.220;5.308;2022-12-01T07:48:21;45.35;;;18.90;;
41480;SDS011;27217;51.220;5.308;2022-12-01T07:50:47;50.97;;;20.48;;
41480;SDS011;27217;51.220;5.308;2022-12-01T07:53:13;60.50;;;22.27;;
41480;SDS011;27217;51.220;5.308;2022-12-01T07:55:46;55.22;;;21.27;;
41480;SDS011;27217;51.220;5.308;2022-12-01T07:58:13;50.95;;;20.67;;
41480;SDS011;27217;51.220;5.308;2022-12-01T08:00:38;51.03;;;20.98;;
41480;SDS011;27217;51.220;5.308;2022-12-01T08:03:04;64.10;;;22.08;;
41480;SDS011;27217;51.220;5.308;2022-12-01T08:05:30;54.45;;;20.83;;
41480;SDS011;27217;51.220;5.308;2022-12-01T08:07:56;52.35;;;20.50;;
41480;SDS011;27217;51.220;5.308;2022-12-01T08:10:22;50.47;;;19.33;;
41480;SDS011;27217;51.220;5.308;2022-12-01T08:12:47;46.88;;;19.25;;
41480;SDS011;27217;51.220;5.308;2022-12-01T08:15:13;51.22;;;22.00;;
41480;SDS011;27217;51.220;5.308;2022-12-01T08:17:39;53.13;;;20.27;;
41480;SDS011;27217;51.220;5.308;2022-12-01T08:20:05;56.45;;;20.10;;
41480;SDS011;27217;51.220;5.308;2022-12-01T08:22:32;57.05;;;22.02;;
41480;SDS011;27217;51.220;5.308;2022-12-01T08:24:58;56.60;;;21.98;;
41480;SDS011;27217;51.220;5.308;2022-12-01T08:27:24;49.65;;;20.98;;
41480;SDS011;27217;51.220;5.308;2022-12-01T08:29:49;49.75;;;20.27;;
41480;SDS011;27217;51.220;5.308;2022-12-01T08:32:16;53.83;;;20.38;;
41480;SDS011;27217;51.220;5.308;2022-12-01T08:34:42;55.83;;;21.00;;
41480;SDS011;27217;51.220;5.308;2022-12-01T08:37:08;51.75;;;19.63;;
41480;SDS011;27217;51.220;5.308;2022-12-01T08:39:33;50.90;;;21.00;;
41480;SDS011;27217;51.220;5.308;2022-12-01T08:42:00;53.83;;;20.27;;
41480;SDS011;27217;51.220;5.308;2022-12-01T08:44:26;54.95;;;21.75;;
41480;SDS011;27217;51.220;5.308;2022-12-01T08:46:54;52.67;;;21.33;;
41480;SDS011;27217;51.220;5.308;2022-12-01T08:49:22;57.70;;;21.52;;
41480;SDS011;27217;51.220;5.308;2022-12-01T08:51:48;52.65;;;21.05;;
41480;SDS011;27217;51.220;5.308;2022-12-01T08:54:14;52.40;;;20.95;;
41480;SDS011;27217;51.220;5.308;2022-12-01T08:56:41;52.60;;;20.33;;
41480;SDS011;27217;51.220;5.308;2022-12-01T08:59:08;53.13;;;20.20;;
41480;SDS011;27217;51.220;5.308;2022-12-01T09:01:34;54.40;;;21.40;;
41480;SDS011;27217;51.220;5.308;2022-12-01T09:04:16;60.63;;;20.40;;
41480;SDS011;27217;51.220;5.308;2022-12-01T09:06:46;52.13;;;21.13;;
41480;SDS011;27217;51.220;5.308;2022-12-01T09:09:16;59.55;;;20.83;;
41480;SDS011;27217;51.220;5.308;2022-12-01T09:11:47;58.10;;;22.10;;
41480;SDS011;27217;51.220;5.308;2022-12-01T09:14:14;50.90;;;20.70;;
41480;SDS011;27217;51.220;5.308;2022-12-01T09:16:41;48.42;;;20.23;;
41480;SDS011;27217;51.220;5.308;2022-12-01T09:19:07;49.20;;;19.10;;
41480;SDS011;27217;51.220;5.308;2022-12-01T09:21:34;62.65;;;21.70;;
41480;SDS011;27217;51.220;5.308;2022-12-01T09:24:20;52.78;;;20.90;;
41480;SDS011;27217;51.220;5.308;2022-12-01T09:26:46;46.25;;;19.30;;
41480;SDS011;27217;51.220;5.308;2022-12-01T09:29:12;49.85;;;19.13;;
41480;SDS011;27217;51.220;5.308;2022-12-01T09:31:40;43.03;;;19.75;;
41480;SDS011;27217;51.220;5.308;2022-12-01T09:34:07;47.40;;;18.75;;
41480;SDS011;27217;51.220;5.308;2022-12-01T09:39:04;56.70;;;21.52;;
41480;SDS011;27217;51.220;5.308;2022-12-01T09:41:36;60.72;;;22.25;;
41480;SDS011;27217;51.220;5.308;2022-12-01T09:52:43;52.15;;;21.65;;
41480;SDS011;27217;51.220;5.308;2022-12-01T09:55:15;67.47;;;22.02;;
41480;SDS011;27217;51.220;5.308;2022-12-01T09:57:47;59.65;;;21.77;;
41480;SDS011;27217;51.220;5.308;2022-12-01T10:00:16;54.33;;;21.30;;
41480;SDS011;27217;51.220;5.308;2022-12-01T10:02:52;51.78;;;21.88;;
41480;SDS011;27217;51.220;5.308;2022-12-01T10:05:28;56.08;;;21.52;;
41480;SDS011;27217;51.220;5.308;2022-12-01T10:07:59;56.15;;;23.30;;
41480;SDS011;27217;51.220;5.308;2022-12-01T10:10:29;52.75;;;22.15;;
41480;SDS011;27217;51.220;5.308;2022-12-01T10:12:59;57.55;;;21.75;;
41480;SDS011;27217;51.220;5.308;2022-12-01T10:17:56;52.42;;;22.13;;
41480;SDS011;27217;51.220;5.308;2022-12-01T10:23:20;50.90;;;21.13;;
41480;SDS011;27217;51.220;5.308;2022-12-01T10:25:55;48.80;;;21.40;;
41480;SDS011;27217;51.220;5.308;2022-12-01T10:31:15;53.47;;;22.77;;
41480;SDS011;27217;51.220;5.308;2022-12-01T10:33:44;49.03;;;21.80;;
41480;SDS011;27217;51.220;5.308;2022-12-01T10:36:30;51.72;;;21.90;;
41480;SDS011;27217;51.220;5.308;2022-12-01T10:38:58;55.55;;;23.27;;
41480;SDS011;27217;51.220;5.308;2022-12-01T10:41:26;56.00;;;22.67;;
41480;SDS011;27217;51.220;5.308;2022-12-01T10:43:56;55.90;;;23.27;;
41480;SDS011;27217;51.220;5.308;2022-12-01T10:46:27;53.20;;;22.85;;
41480;SDS011;27217;51.220;5.308;2022-12-01T10:48:59;50.95;;;21.30;;
41480;SDS011;27217;51.220;5.308;2022-12-01T10:51:33;53.13;;;23.55;;
41480;SDS011;27217;51.220;5.308;2022-12-01T10:54:21;49.30;;;22.35;;
41480;SDS011;27217;51.220;5.308;2022-12-01T10:56:55;50.33;;;22.20;;
41480;SDS011;27217;51.220;5.308;2022-12-01T11:02:18;48.80;;;20.80;;
41480;SDS011;27217;51.220;5.308;2022-12-01T11:07:26;52.20;;;21.48;;
41480;SDS011;27217;51.220;5.308;2022-12-01T11:10:05;45.67;;;20.55;;
41480;SDS011;27217;51.220;5.308;2022-12-01T11:12:45;45.83;;;21.35;;
41480;SDS011;27217;51.220;5.308;2022-12-01T11:15:40;46.35;;;19.02;;
41480;SDS011;27217;51.220;5.308;2022-12-01T11:18:27;45.97;;;21.10;;
41480;SDS011;27217;51.220;5.308;2022-12-01T11:23:29;44.08;;;19.55;;
41480;SDS011;27217;51.220;5.308;2022-12-01T11:25:56;46.42;;;21.73;;
41480;SDS011;27217;51.220;5.308;2022-12-01T11:28:35;45.15;;;20.40;;
41480;SDS011;27217;51.220;5.308;2022-12-01T11:31:05;45.88;;;22.15;;
41480;SDS011;27217;51.220;5.308;2022-12-01T11:33:37;47.40;;;20.52;;
41480;SDS011;27217;51.220;5.308;2022-12-01T11:36:09;43.40;;;19.30;;
41480;SDS011;27217;51.220;5.308;2022-12-01T11:38:42;40.97;;;19.05;;
41480;SDS011;27217;51.220;5.308;2022-12-01T11:41:08;43.60;;;16.83;;
41480;SDS011;27217;51.220;5.308;2022-12-01T11:43:54;35.40;;;16.23;;
41480;SDS011;27217;51.220;5.308;2022-12-01T11:46:26;42.20;;;18.48;;
41480;SDS011;27217;51.220;5.308;2022-12-01T11:48:57;42.05;;;18.60;;
41480;SDS011;27217;51.220;5.308;2022-12-01T11:51:33;39.90;;;18.95;;
41480;SDS011;27217;51.220;5.308;2022-12-01T11:54:06;42.58;;;19.15;;
41480;SDS011;27217;51.220;5.308;2022-12-01T11:56:44;42.10;;;18.85;;
41480;SDS011;27217;51.220;5.308;2022-12-01T11:59:29;37.40;;;17.67;;
41480;SDS011;27217;51.220;5.308;2022-12-01T12:16:24;43.15;;;19.10;;
41480;SDS011;27217;51.220;5.308;2022-12-01T12:24:38;41.42;;;17.98;;
41480;SDS011;27217;51.220;5.308;2022-12-01T12:35:43;40.80;;;17.42;;
41480;SDS011;27217;51.220;5.308;2022-12-01T12:40:57;47.33;;;19.67;;
41480;SDS011;27217;51.220;5.308;2022-12-01T12:46:44;54.60;;;20.42;;
41480;SDS011;27217;51.220;5.308;2022-12-01T12:52:10;47.60;;;20.02;;
41480;SDS011;27217;51.220;5.308;2022-12-01T12:57:24;54.83;;;20.85;;
41480;SDS011;27217;51.220;5.308;2022-12-01T12:59:52;52.08;;;20.27;;
41480;SDS011;27217;51.220;5.308;2022-12-01T13:02:21;50.85;;;20.85;;
41480;SDS011;27217;51.220;5.308;2022-12-01T13:10:43;45.35;;;19.88;;
41480;SDS011;27217;51.220;5.308;2022-12-01T13:15:49;50.92;;;21.85;;
41480;SDS011;27217;51.220;5.308;2022-12-01T13:18:25;43.55;;;19.45;;
41480;SDS011;27217;51.220;5.308;2022-12-01T13:21:03;49.92;;;20.75;;
41480;SDS011;27217;51.220;5.308;2022-12-01T13:23:30;47.88;;;20.67;;
41480;SDS011;27217;51.220;5.308;2022-12-01T13:25:58;47.08;;;19.90;;
41480;SDS011;27217;51.220;5.308;2022-12-01T13:28:29;48.90;;;19.88;;
41480;SDS011;27217;51.220;5.308;2022-12-01T13:31:03;55.70;;;21.42;;
41480;SDS011;27217;51.220;5.308;2022-12-01T13:33:34;44.53;;;18.13;;
41480;SDS011;27217;51.220;5.308;2022-12-01T13:36:02;48.58;;;18.85;;
41480;SDS011;27217;51.220;5.308;2022-12-01T13:38:33;45.47;;;18.33;;
41480;SDS011;27217;51.220;5.308;2022-12-01T13:41:13;44.25;;;18.42;;
41480;SDS011;27217;51.220;5.308;2022-12-01T13:43:53;54.33;;;20.10;;
41480;SDS011;27217;51.220;5.308;2022-12-01T13:46:28;49.70;;;19.77;;
41480;SDS011;27217;51.220;5.308;2022-12-01T13:49:37;46.38;;;19.05;;
41480;SDS011;27217;51.220;5.308;2022-12-01T13:55:23;43.83;;;21.52;;
41480;SDS011;27217;51.220;5.308;2022-12-01T13:57:49;53.50;;;21.30;;
41480;SDS011;27217;51.220;5.308;2022-12-01T14:00:22;46.15;;;19.20;;
41480;SDS011;27217;51.220;5.308;2022-12-01T14:13:28;49.90;;;21.05;;
41480;SDS011;27217;51.220;5.308;2022-12-01T14:18:35;60.20;;;23.90;;
41480;SDS011;27217;51.220;5.308;2022-12-01T14:21:05;58.75;;;21.92;;
41480;SDS011;27217;51.220;5.308;2022-12-01T14:23:35;61.63;;;24.10;;
41480;SDS011;27217;51.220;5.308;2022-12-01T14:26:15;74.63;;;26.88;;
41480;SDS011;27217;51.220;5.308;2022-12-01T14:31:20;64.82;;;22.98;;
41480;SDS011;27217;51.220;5.308;2022-12-01T14:36:43;51.45;;;20.40;;
41480;SDS011;27217;51.220;5.308;2022-12-01T14:39:17;58.25;;;20.90;;
41480;SDS011;27217;51.220;5.308;2022-12-01T14:42:01;52.53;;;21.73;;
41480;SDS011;27217;51.220;5.308;2022-12-01T14:44:41;45.65;;;19.55;;
41480;SDS011;27217;51.220;5.308;2022-12-01T14:47:20;60.15;;;23.00;;
41480;SDS011;27217;51.220;5.308;2022-12-01T14:52:29;52.40;;;21.38;;
41480;SDS011;27217;51.220;5.308;2022-12-01T14:55:00;53.53;;;21.55;;
41480;SDS011;27217;51.220;5.308;2022-12-01T14:57:35;55.50;;;20.00;;
41480;SDS011;27217;51.220;5.308;2022-12-01T15:00:05;54.03;;;21.27;;
41480;SDS011;27217;51.220;5.308;2022-12-01T15:02:31;45.90;;;18.73;;
41480;SDS011;27217;51.220;5.308;2022-12-01T15:07:38;46.85;;;19.52;;
41480;SDS011;27217;51.220;5.308;2022-12-01T15:10:13;54.38;;;21.33;;
41480;SDS011;27217;51.220;5.308;2022-12-01T15:12:47;57.85;;;21.48;;
41480;SDS011;27217;51.220;5.308;2022-12-01T15:15:18;58.38;;;21.85;;
41480;SDS011;27217;51.220;5.308;2022-12-01T15:17:44;48.83;;;19.73;;
41480;SDS011;27217;51.220;5.308;2022-12-01T15:20:30;93.10;;;21.02;;
41480;SDS011;27217;51.220;5.308;2022-12-01T15:23:06;54.13;;;22.10;;
41480;SDS011;27217;51.220;5.308;2022-12-01T15:25:36;54.40;;;22.00;;
41480;SDS011;27217;51.220;5.308;2022-12-01T15:28:12;49.70;;;21.40;;
41480;SDS011;27217;51.220;5.308;2022-12-01T15:30:44;53.97;;;20.98;;
41480;SDS011;27217;51.220;5.308;2022-12-01T15:33:22;45.13;;;19.73;;
41480;SDS011;27217;51.220;5.308;2022-12-01T15:35:55;52.50;;;21.33;;
41480;SDS011;27217;51.220;5.308;2022-12-01T15:38:24;51.30;;;20.75;;
41480;SDS011;27217;51.220;5.308;2022-12-01T15:40:55;48.83;;;19.63;;
41480;SDS011;27217;51.220;5.308;2022-12-01T15:43:33;51.50;;;19.50;;
41480;SDS011;27217;51.220;5.308;2022-12-01T15:46:13;47.35;;;19.48;;
41480;SDS011;27217;51.220;5.308;2022-12-01T15:48:40;52.22;;;19.23;;
41480;SDS011;27217;51.220;5.308;2022-12-01T15:53:39;43.42;;;18.75;;
41480;SDS011;27217;51.220;5.308;2022-12-01T15:56:15;52.72;;;20.08;;
41480;SDS011;27217;51.220;5.308;2022-12-01T15:58:47;53.33;;;21.48;;
41480;SDS011;27217;51.220;5.308;2022-12-01T16:01:14;53.33;;;19.67;;
41480;SDS011;27217;51.220;5.308;2022-12-01T16:03:52;56.70;;;21.52;;
41480;SDS011;27217;51.220;5.308;2022-12-01T16:06:24;58.50;;;24.17;;
41480;SDS011;27217;51.220;5.308;2022-12-01T16:08:57;53.85;;;22.35;;
41480;SDS011;27217;51.220;5.308;2022-12-01T16:11:28;57.17;;;23.23;;
41480;SDS011;27217;51.220;5.308;2022-12-01T16:14:04;55.17;;;21.60;;
41480;SDS011;27217;51.220;5.308;2022-12-01T16:16:46;58.97;;;22.85;;
41480;SDS011;27217;51.220;5.308;2022-12-01T16:19:20;64.38;;;24.00;;
41480;SDS011;27217;51.220;5.308;2022-12-01T16:21:57;55.42;;;23.40;;
41480;SDS011;27217;51.220;5.308;2022-12-01T16:24:26;63.85;;;23.85;;
41480;SDS011;27217;51.220;5.308;2022-12-01T16:26:55;63.28;;;24.30;;
41480;SDS011;27217;51.220;5.308;2022-12-01T16:29:25;53.63;;;23.10;;
41480;SDS011;27217;51.220;5.308;2022-12-01T16:31:52;56.28;;;21.30;;
41480;SDS011;27217;51.220;5.308;2022-12-01T16:34:21;57.22;;;22.75;;
41480;SDS011;27217;51.220;5.308;2022-12-01T16:36:47;55.78;;;22.30;;
41480;SDS011;27217;51.220;5.308;2022-12-01T16:39:13;50.30;;;21.17;;
41480;SDS011;27217;51.220;5.308;2022-12-01T16:41:40;61.70;;;23.42;;
41480;SDS011;27217;51.220;5.308;2022-12-01T16:44:14;56.20;;;22.60;;
41480;SDS011;27217;51.220;5.308;2022-12-01T16:46:40;64.63;;;23.30;;
41480;SDS011;27217;51.220;5.308;2022-12-01T16:49:07;54.70;;;23.15;;
41480;SDS011;27217;51.220;5.308;2022-12-01T16:51:33;63.60;;;24.13;;
41480;SDS011;27217;51.220;5.308;2022-12-01T16:54:00;53.63;;;22.35;;
41480;SDS011;27217;51.220;5.308;2022-12-01T16:56:26;60.33;;;23.58;;
41480;SDS011;27217;51.220;5.308;2022-12-01T16:58:52;57.78;;;24.30;;
41480;SDS011;27217;51.220;5.308;2022-12-01T17:01:17;55.03;;;23.02;;
41480;SDS011;27217;51.220;5.308;2022-12-01T17:03:43;50.50;;;21.75;;
41480;SDS011;27217;51.220;5.308;2022-12-01T17:06:10;55.47;;;22.13;;
41480;SDS011;27217;51.220;5.308;2022-12-01T17:08:43;55.28;;;22.73;;